RYR32ED LPPR-EDDK
Flight info
| Callsign | RYR32ED |
|---|---|
| Flight time | N/A |
| Altitude | 34000 |
| Route | TURON P600 ASDEB DCT LOTEE DCT AZFIC UN741 NTS DCT GONEK DCT TABOV UN858 OQQAL DCT RANUX DCT VALEK DCT LUTAX UM163 DIK N853 ARCKY T853 IBESA T860 ERUKI |
| Aircraft | B38M/M-SDE1FGHILORVWXY/HB1 |
Departure
| Time | N/A |
|---|---|
| Airport | Francisco de Sá Carneiro Airport (LPPR) |
Arrival
| Time | 2026-05-06 21:16 |
|---|---|
| Airport | Cologne Bonn Airport (EDDK) |
| Time | Latitude | Longitude | Altitude | Speed | Heading |
|---|---|---|---|---|---|
| 2026-05-06 20:51 | 50.81738 | 6.89298 | 34243 ft | 408 kts | 324° |
| 2026-05-06 20:52 | 50.84075 | 6.86862 | 33656 ft | 405 kts | 325° |
| 2026-05-06 20:52 | 50.86417 | 6.84437 | 32990 ft | 400 kts | 325° |
| 2026-05-06 20:52 | 50.88740 | 6.82033 | 32335 ft | 396 kts | 325° |
| 2026-05-06 20:52 | 50.91030 | 6.79658 | 31694 ft | 392 kts | 325° |
| 2026-05-06 20:53 | 50.93303 | 6.77303 | 31076 ft | 388 kts | 325° |
| 2026-05-06 20:53 | 50.95549 | 6.74971 | 30462 ft | 384 kts | 325° |
| 2026-05-06 20:53 | 50.97776 | 6.72657 | 29834 ft | 381 kts | 325° |
| 2026-05-06 20:53 | 50.99984 | 6.70363 | 29142 ft | 377 kts | 325° |
| 2026-05-06 20:54 | 51.02167 | 6.68094 | 28450 ft | 373 kts | 326° |
| 2026-05-06 20:54 | 51.04484 | 6.66301 | 27758 ft | 370 kts | 343° |
| 2026-05-06 20:54 | 51.07011 | 6.65715 | 27110 ft | 367 kts | 2° |
| 2026-05-06 20:54 | 51.09504 | 6.66395 | 26470 ft | 363 kts | 20° |
| 2026-05-06 20:55 | 51.11705 | 6.68279 | 25840 ft | 358 kts | 40° |
| 2026-05-06 20:55 | 51.13374 | 6.71172 | 25225 ft | 354 kts | 60° |
| 2026-05-06 20:55 | 51.14273 | 6.74712 | 24617 ft | 349 kts | 82° |
| 2026-05-06 20:55 | 51.14260 | 6.78524 | 24012 ft | 344 kts | 105° |
| 2026-05-06 20:56 | 51.13307 | 6.81952 | 23440 ft | 338 kts | 128° |
| 2026-05-06 20:56 | 51.11607 | 6.84469 | 22770 ft | 333 kts | 150° |
| 2026-05-06 20:56 | 51.09580 | 6.86209 | 22149 ft | 330 kts | 153° |
| 2026-05-06 20:56 | 51.07512 | 6.87785 | 21503 ft | 329 kts | 158° |
| 2026-05-06 20:57 | 51.05447 | 6.89287 | 20889 ft | 328 kts | 156° |
| 2026-05-06 20:57 | 51.03371 | 6.90750 | 20276 ft | 325 kts | 165° |
| 2026-05-06 20:57 | 51.01167 | 6.91191 | 19682 ft | 320 kts | 185° |
| 2026-05-06 20:57 | 50.99023 | 6.90413 | 19103 ft | 315 kts | 205° |
| 2026-05-06 20:58 | 50.97207 | 6.88540 | 18541 ft | 310 kts | 225° |
| 2026-05-06 20:58 | 50.95922 | 6.85839 | 17959 ft | 306 kts | 245° |
| 2026-05-06 20:58 | 50.95297 | 6.82649 | 17328 ft | 303 kts | 264° |
| 2026-05-06 20:58 | 50.95404 | 6.79343 | 16814 ft | 298 kts | 285° |
| 2026-05-06 20:59 | 50.96231 | 6.76377 | 16556 ft | 295 kts | 304° |
| 2026-05-06 20:59 | 50.97603 | 6.74035 | 16294 ft | 295 kts | 317° |
| 2026-05-06 20:59 | 50.99169 | 6.71933 | 16019 ft | 296 kts | 321° |
| 2026-05-06 20:59 | 51.00794 | 6.69937 | 15743 ft | 294 kts | 323° |
| 2026-05-06 21:00 | 51.02452 | 6.68040 | 15472 ft | 291 kts | 326° |
| 2026-05-06 21:00 | 51.04294 | 6.66796 | 15267 ft | 290 kts | 349° |
| 2026-05-06 21:00 | 51.06307 | 6.66875 | 15084 ft | 293 kts | 13° |
| 2026-05-06 21:00 | 51.08150 | 6.68263 | 14753 ft | 297 kts | 37° |
| 2026-05-06 21:01 | 51.09503 | 6.70757 | 14359 ft | 302 kts | 60° |
| 2026-05-06 21:01 | 51.10116 | 6.73951 | 13972 ft | 306 kts | 84° |
| 2026-05-06 21:01 | 51.09877 | 6.77315 | 13569 ft | 310 kts | 107° |
| 2026-05-06 21:01 | 51.08826 | 6.80306 | 13135 ft | 313 kts | 130° |
| 2026-05-06 21:02 | 51.07083 | 6.82368 | 12685 ft | 315 kts | 153° |
| 2026-05-06 21:02 | 51.05139 | 6.83983 | 12271 ft | 315 kts | 151° |
| 2026-05-06 21:02 | 51.03229 | 6.85607 | 11854 ft | 316 kts | 152° |
| 2026-05-06 21:02 | 51.01186 | 6.86874 | 11422 ft | 317 kts | 168° |
| 2026-05-06 21:03 | 50.98998 | 6.87349 | 11044 ft | 316 kts | 174° |
| 2026-05-06 21:03 | 50.96818 | 6.87700 | 10713 ft | 314 kts | 174° |
| 2026-05-06 21:03 | 50.94652 | 6.88045 | 10374 ft | 312 kts | 174° |
| 2026-05-06 21:03 | 50.92498 | 6.88387 | 10051 ft | 310 kts | 174° |
| 2026-05-06 21:04 | 50.90360 | 6.88720 | 9729 ft | 308 kts | 174° |
| 2026-05-06 21:04 | 50.88283 | 6.89313 | 9334 ft | 305 kts | 156° |
| 2026-05-06 21:04 | 50.86533 | 6.91134 | 8975 ft | 300 kts | 138° |
| 2026-05-06 21:04 | 50.84968 | 6.93284 | 8632 ft | 294 kts | 137° |
| 2026-05-06 21:05 | 50.83446 | 6.95383 | 8356 ft | 287 kts | 137° |
| 2026-05-06 21:05 | 50.81945 | 6.97449 | 8095 ft | 285 kts | 137° |
| 2026-05-06 21:05 | 50.80457 | 6.99494 | 7830 ft | 282 kts | 137° |
| 2026-05-06 21:05 | 50.78979 | 7.01522 | 7565 ft | 280 kts | 137° |
| 2026-05-06 21:06 | 50.77506 | 7.03540 | 7299 ft | 280 kts | 137° |
| 2026-05-06 21:06 | 50.76043 | 7.05551 | 7054 ft | 278 kts | 137° |
| 2026-05-06 21:06 | 50.74591 | 7.07551 | 6795 ft | 276 kts | 137° |
| 2026-05-06 21:06 | 50.73151 | 7.09538 | 6542 ft | 274 kts | 137° |
| 2026-05-06 21:07 | 50.71721 | 7.11521 | 6289 ft | 274 kts | 137° |
| 2026-05-06 21:07 | 50.70293 | 7.13503 | 6017 ft | 272 kts | 137° |
| 2026-05-06 21:07 | 50.68894 | 7.15454 | 5745 ft | 272 kts | 137° |
| 2026-05-06 21:07 | 50.67484 | 7.17419 | 5480 ft | 270 kts | 137° |
| 2026-05-06 21:08 | 50.66081 | 7.19383 | 5202 ft | 269 kts | 137° |
| 2026-05-06 21:08 | 50.64682 | 7.21346 | 4925 ft | 269 kts | 137° |
| 2026-05-06 21:08 | 50.63415 | 7.23491 | 4578 ft | 267 kts | 117° |
| 2026-05-06 21:08 | 50.63006 | 7.26248 | 4228 ft | 255 kts | 82° |
| 2026-05-06 21:09 | 50.63630 | 7.28693 | 3982 ft | 233 kts | 50° |
| 2026-05-06 21:09 | 50.64618 | 7.30621 | 3773 ft | 220 kts | 47° |
| 2026-05-06 21:09 | 50.65584 | 7.32435 | 3599 ft | 212 kts | 47° |
| 2026-05-06 21:09 | 50.66516 | 7.34182 | 3463 ft | 204 kts | 47° |
| 2026-05-06 21:10 | 50.67412 | 7.35863 | 3327 ft | 196 kts | 47° |
| 2026-05-06 21:10 | 50.68322 | 7.37368 | 3194 ft | 185 kts | 30° |
| 2026-05-06 21:10 | 50.69501 | 7.37888 | 3021 ft | 174 kts | 354° |
| 2026-05-06 21:10 | 50.70620 | 7.37335 | 2966 ft | 169 kts | 334° |
| 2026-05-06 21:11 | 50.71634 | 7.36375 | 3008 ft | 172 kts | 325° |
| 2026-05-06 21:11 | 50.72573 | 7.35200 | 3045 ft | 173 kts | 321° |
| 2026-05-06 21:11 | 50.73475 | 7.33948 | 3018 ft | 172 kts | 319° |
| 2026-05-06 21:11 | 50.74360 | 7.32676 | 3011 ft | 172 kts | 319° |
| 2026-05-06 21:12 | 50.75230 | 7.31422 | 3007 ft | 172 kts | 319° |
| 2026-05-06 21:12 | 50.76118 | 7.30142 | 2820 ft | 173 kts | 319° |
| 2026-05-06 21:12 | 50.77001 | 7.28869 | 2632 ft | 169 kts | 319° |
| 2026-05-06 21:12 | 50.77861 | 7.27627 | 2417 ft | 165 kts | 319° |
| 2026-05-06 21:13 | 50.78690 | 7.26431 | 2206 ft | 160 kts | 319° |
| 2026-05-06 21:13 | 50.79507 | 7.25253 | 1997 ft | 158 kts | 320° |
| 2026-05-06 21:13 | 50.80315 | 7.24085 | 1781 ft | 157 kts | 320° |
| 2026-05-06 21:13 | 50.81106 | 7.22940 | 1580 ft | 148 kts | 319° |
| 2026-05-06 21:14 | 50.81835 | 7.21888 | 1371 ft | 138 kts | 318° |
| 2026-05-06 21:14 | 50.82541 | 7.20868 | 1184 ft | 137 kts | 318° |
| 2026-05-06 21:14 | 50.83248 | 7.19845 | 955 ft | 138 kts | 318° |
| 2026-05-06 21:14 | 50.83957 | 7.18825 | 754 ft | 139 kts | 319° |
| 2026-05-06 21:15 | 50.84674 | 7.17797 | 598 ft | 140 kts | 319° |
| 2026-05-06 21:15 | 50.85399 | 7.16743 | 400 ft | 142 kts | 319° |
| 2026-05-06 21:15 | 50.86098 | 7.15732 | 302 ft | 125 kts | 317° |
| 2026-05-06 21:15 | 50.86677 | 7.14898 | 274 ft | 97 kts | 317° |
| 2026-05-06 21:16 | 50.87092 | 7.14296 | 254 ft | 72 kts | 317° |
| 2026-05-06 21:16 | 50.87446 | 7.13783 | 243 ft | 66 kts | 317° |
| 2026-05-06 21:16 | 50.87761 | 7.13320 | 241 ft | 49 kts | 317° |
| 2026-05-06 21:16 | 50.87950 | 7.13048 | 241 ft | 33 kts | 316° |
| 2026-05-06 21:17 | 50.88002 | 7.12794 | 240 ft | 21 kts | 256° |
| 2026-05-06 21:17 | 50.87999 | 7.12580 | 236 ft | 20 kts | 296° |
| 2026-05-06 21:17 | 50.88058 | 7.12411 | 236 ft | 13 kts | 302° |
| 2026-05-06 21:17 | 50.88098 | 7.12316 | 235 ft | 9 kts | 288° |
| 2026-05-06 21:18 | 50.88121 | 7.12222 | 237 ft | 5 kts | 306° |
| 2026-05-06 21:18 | 50.88118 | 7.12183 | 237 ft | 4 kts | 225° |
| 2026-05-06 21:18 | 50.88088 | 7.12148 | 235 ft | 4 kts | 216° |
| 2026-05-06 21:18 | 50.88082 | 7.12142 | 235 ft | 0 kts | 216° |